sensor_id;sensor_type;location;lat;lon;timestamp;P1;durP1;ratioP1;P2;durP2;ratioP2
14348;SDS011;7258;50.376;8.742;2022-10-18T00:01:59;8.88;;;5.65;;
14348;SDS011;7258;50.376;8.742;2022-10-18T00:04:02;9.68;;;5.75;;
14348;SDS011;7258;50.376;8.742;2022-10-18T00:06:06;12.20;;;6.28;;
14348;SDS011;7258;50.376;8.742;2022-10-18T00:08:10;11.50;;;6.50;;
14348;SDS011;7258;50.376;8.742;2022-10-18T00:10:12;13.93;;;6.40;;
14348;SDS011;7258;50.376;8.742;2022-10-18T00:12:15;10.52;;;6.47;;
14348;SDS011;7258;50.376;8.742;2022-10-18T00:14:18;15.57;;;6.72;;
14348;SDS011;7258;50.376;8.742;2022-10-18T00:16:21;13.13;;;7.57;;
14348;SDS011;7258;50.376;8.742;2022-10-18T00:18:24;13.90;;;8.00;;
14348;SDS011;7258;50.376;8.742;2022-10-18T00:20:27;15.48;;;8.40;;
14348;SDS011;7258;50.376;8.742;2022-10-18T00:22:32;15.60;;;8.70;;
14348;SDS011;7258;50.376;8.742;2022-10-18T00:24:35;17.90;;;9.02;;
14348;SDS011;7258;50.376;8.742;2022-10-18T00:26:38;13.70;;;9.10;;
14348;SDS011;7258;50.376;8.742;2022-10-18T00:28:41;14.60;;;9.43;;
14348;SDS011;7258;50.376;8.742;2022-10-18T00:30:45;13.57;;;9.40;;
14348;SDS011;7258;50.376;8.742;2022-10-18T00:32:48;15.57;;;10.38;;
14348;SDS011;7258;50.376;8.742;2022-10-18T00:34:50;16.15;;;10.25;;
14348;SDS011;7258;50.376;8.742;2022-10-18T00:36:53;15.10;;;11.10;;
14348;SDS011;7258;50.376;8.742;2022-10-18T00:38:58;17.05;;;12.27;;
14348;SDS011;7258;50.376;8.742;2022-10-18T00:41:01;22.38;;;12.23;;
14348;SDS011;7258;50.376;8.742;2022-10-18T00:43:05;22.38;;;11.82;;
14348;SDS011;7258;50.376;8.742;2022-10-18T00:45:17;16.25;;;11.77;;
14348;SDS011;7258;50.376;8.742;2022-10-18T00:47:21;15.45;;;12.18;;
14348;SDS011;7258;50.376;8.742;2022-10-18T00:49:26;17.73;;;11.77;;
14348;SDS011;7258;50.376;8.742;2022-10-18T00:51:31;18.15;;;12.20;;
14348;SDS011;7258;50.376;8.742;2022-10-18T00:53:38;20.83;;;13.20;;
14348;SDS011;7258;50.376;8.742;2022-10-18T00:55:43;22.65;;;13.20;;
14348;SDS011;7258;50.376;8.742;2022-10-18T00:57:46;24.20;;;14.25;;
14348;SDS011;7258;50.376;8.742;2022-10-18T00:59:50;25.00;;;14.30;;
14348;SDS011;7258;50.376;8.742;2022-10-18T01:01:54;19.95;;;13.15;;
14348;SDS011;7258;50.376;8.742;2022-10-18T01:03:57;19.10;;;13.32;;
14348;SDS011;7258;50.376;8.742;2022-10-18T01:06:00;23.15;;;14.60;;
14348;SDS011;7258;50.376;8.742;2022-10-18T01:08:15;18.45;;;13.07;;
14348;SDS011;7258;50.376;8.742;2022-10-18T01:10:30;25.02;;;14.45;;
14348;SDS011;7258;50.376;8.742;2022-10-18T01:12:43;25.30;;;14.70;;
14348;SDS011;7258;50.376;8.742;2022-10-18T01:14:58;26.13;;;14.93;;
14348;SDS011;7258;50.376;8.742;2022-10-18T01:17:12;21.73;;;13.57;;
14348;SDS011;7258;50.376;8.742;2022-10-18T01:19:25;29.20;;;16.33;;
14348;SDS011;7258;50.376;8.742;2022-10-18T01:21:42;29.15;;;15.38;;
14348;SDS011;7258;50.376;8.742;2022-10-18T01:24:06;23.60;;;14.98;;
14348;SDS011;7258;50.376;8.742;2022-10-18T01:26:36;25.40;;;15.38;;
14348;SDS011;7258;50.376;8.742;2022-10-18T01:28:53;25.65;;;16.08;;
14348;SDS011;7258;50.376;8.742;2022-10-18T01:31:01;23.48;;;14.98;;
14348;SDS011;7258;50.376;8.742;2022-10-18T01:33:09;28.17;;;16.38;;
14348;SDS011;7258;50.376;8.742;2022-10-18T01:35:22;27.50;;;15.80;;
14348;SDS011;7258;50.376;8.742;2022-10-18T01:37:28;28.42;;;16.45;;
14348;SDS011;7258;50.376;8.742;2022-10-18T01:39:35;26.13;;;16.73;;
14348;SDS011;7258;50.376;8.742;2022-10-18T01:41:40;31.27;;;17.63;;
14348;SDS011;7258;50.376;8.742;2022-10-18T01:43:45;36.80;;;17.70;;
14348;SDS011;7258;50.376;8.742;2022-10-18T01:45:51;31.90;;;17.33;;
14348;SDS011;7258;50.376;8.742;2022-10-18T01:47:57;40.05;;;19.60;;
14348;SDS011;7258;50.376;8.742;2022-10-18T01:50:02;48.85;;;23.70;;
14348;SDS011;7258;50.376;8.742;2022-10-18T01:52:08;44.83;;;23.90;;
14348;SDS011;7258;50.376;8.742;2022-10-18T01:54:15;60.80;;;26.73;;
14348;SDS011;7258;50.376;8.742;2022-10-18T01:56:22;70.03;;;30.05;;
14348;SDS011;7258;50.376;8.742;2022-10-18T01:58:33;71.82;;;29.65;;
14348;SDS011;7258;50.376;8.742;2022-10-18T02:00:40;60.47;;;27.50;;
14348;SDS011;7258;50.376;8.742;2022-10-18T02:02:45;64.55;;;28.08;;
14348;SDS011;7258;50.376;8.742;2022-10-18T02:04:55;50.78;;;26.00;;
14348;SDS011;7258;50.376;8.742;2022-10-18T02:07:05;59.15;;;27.60;;
14348;SDS011;7258;50.376;8.742;2022-10-18T02:09:15;57.63;;;26.63;;
14348;SDS011;7258;50.376;8.742;2022-10-18T02:11:22;46.97;;;25.42;;
14348;SDS011;7258;50.376;8.742;2022-10-18T02:13:27;52.92;;;25.85;;
14348;SDS011;7258;50.376;8.742;2022-10-18T02:15:34;60.08;;;27.60;;
14348;SDS011;7258;50.376;8.742;2022-10-18T02:17:40;40.33;;;23.70;;
14348;SDS011;7258;50.376;8.742;2022-10-18T02:19:44;58.38;;;26.63;;
14348;SDS011;7258;50.376;8.742;2022-10-18T02:21:52;47.85;;;24.42;;
14348;SDS011;7258;50.376;8.742;2022-10-18T02:23:59;61.35;;;27.35;;
14348;SDS011;7258;50.376;8.742;2022-10-18T02:26:04;60.00;;;28.42;;
14348;SDS011;7258;50.376;8.742;2022-10-18T02:28:07;54.35;;;27.13;;
14348;SDS011;7258;50.376;8.742;2022-10-18T02:30:10;58.47;;;27.98;;
14348;SDS011;7258;50.376;8.742;2022-10-18T02:32:16;59.55;;;27.83;;
14348;SDS011;7258;50.376;8.742;2022-10-18T02:34:23;75.20;;;30.73;;
14348;SDS011;7258;50.376;8.742;2022-10-18T02:36:31;80.38;;;31.67;;
14348;SDS011;7258;50.376;8.742;2022-10-18T02:38:38;75.03;;;29.83;;
14348;SDS011;7258;50.376;8.742;2022-10-18T02:40:43;117.35;;;34.10;;
14348;SDS011;7258;50.376;8.742;2022-10-18T02:42:47;93.85;;;30.77;;
14348;SDS011;7258;50.376;8.742;2022-10-18T02:44:51;85.57;;;23.20;;
14348;SDS011;7258;50.376;8.742;2022-10-18T02:46:54;57.90;;;24.80;;
14348;SDS011;7258;50.376;8.742;2022-10-18T02:48:57;71.05;;;28.40;;
14348;SDS011;7258;50.376;8.742;2022-10-18T02:51:00;54.97;;;24.92;;
14348;SDS011;7258;50.376;8.742;2022-10-18T02:53:02;54.63;;;23.73;;
14348;SDS011;7258;50.376;8.742;2022-10-18T02:55:07;53.75;;;24.83;;
14348;SDS011;7258;50.376;8.742;2022-10-18T02:57:10;48.58;;;24.00;;
14348;SDS011;7258;50.376;8.742;2022-10-18T02:59:13;46.47;;;24.08;;
14348;SDS011;7258;50.376;8.742;2022-10-18T03:01:16;53.90;;;24.40;;
14348;SDS011;7258;50.376;8.742;2022-10-18T03:03:19;54.78;;;25.73;;
14348;SDS011;7258;50.376;8.742;2022-10-18T03:05:22;47.65;;;23.23;;
14348;SDS011;7258;50.376;8.742;2022-10-18T03:07:25;52.38;;;24.50;;
14348;SDS011;7258;50.376;8.742;2022-10-18T03:09:27;51.65;;;22.90;;
14348;SDS011;7258;50.376;8.742;2022-10-18T03:11:32;45.67;;;22.48;;
14348;SDS011;7258;50.376;8.742;2022-10-18T03:13:35;51.55;;;22.80;;
14348;SDS011;7258;50.376;8.742;2022-10-18T03:15:37;45.55;;;22.70;;
14348;SDS011;7258;50.376;8.742;2022-10-18T03:17:40;38.35;;;20.73;;
14348;SDS011;7258;50.376;8.742;2022-10-18T03:19:43;33.50;;;18.73;;
14348;SDS011;7258;50.376;8.742;2022-10-18T03:21:46;50.97;;;21.23;;
14348;SDS011;7258;50.376;8.742;2022-10-18T03:23:49;54.53;;;23.58;;
14348;SDS011;7258;50.376;8.742;2022-10-18T03:25:51;37.15;;;20.38;;
14348;SDS011;7258;50.376;8.742;2022-10-18T03:27:56;39.03;;;18.23;;
14348;SDS011;7258;50.376;8.742;2022-10-18T03:29:58;36.08;;;16.30;;
14348;SDS011;7258;50.376;8.742;2022-10-18T03:32:01;21.20;;;12.55;;
14348;SDS011;7258;50.376;8.742;2022-10-18T03:34:04;33.03;;;17.35;;
14348;SDS011;7258;50.376;8.742;2022-10-18T03:36:07;38.92;;;19.27;;
14348;SDS011;7258;50.376;8.742;2022-10-18T03:38:10;41.58;;;17.60;;
14348;SDS011;7258;50.376;8.742;2022-10-18T03:40:13;33.90;;;15.40;;
14348;SDS011;7258;50.376;8.742;2022-10-18T03:42:15;27.38;;;13.80;;
14348;SDS011;7258;50.376;8.742;2022-10-18T03:44:20;23.58;;;12.10;;
14348;SDS011;7258;50.376;8.742;2022-10-18T03:46:22;28.73;;;13.75;;
14348;SDS011;7258;50.376;8.742;2022-10-18T03:48:25;24.70;;;12.73;;
14348;SDS011;7258;50.376;8.742;2022-10-18T03:50:28;26.08;;;13.25;;
14348;SDS011;7258;50.376;8.742;2022-10-18T03:52:31;27.38;;;14.63;;
14348;SDS011;7258;50.376;8.742;2022-10-18T03:54:34;31.67;;;13.73;;
14348;SDS011;7258;50.376;8.742;2022-10-18T03:56:37;24.88;;;13.35;;
14348;SDS011;7258;50.376;8.742;2022-10-18T03:58:40;26.83;;;12.88;;
14348;SDS011;7258;50.376;8.742;2022-10-18T04:00:44;27.90;;;13.60;;
14348;SDS011;7258;50.376;8.742;2022-10-18T04:02:50;23.35;;;11.88;;
14348;SDS011;7258;50.376;8.742;2022-10-18T04:04:56;20.98;;;11.43;;
14348;SDS011;7258;50.376;8.742;2022-10-18T04:06:59;19.92;;;9.85;;
14348;SDS011;7258;50.376;8.742;2022-10-18T04:09:02;18.23;;;10.60;;
14348;SDS011;7258;50.376;8.742;2022-10-18T04:11:10;18.70;;;10.25;;
14348;SDS011;7258;50.376;8.742;2022-10-18T04:13:13;16.73;;;10.38;;
14348;SDS011;7258;50.376;8.742;2022-10-18T04:15:16;20.35;;;11.07;;
14348;SDS011;7258;50.376;8.742;2022-10-18T04:17:20;15.45;;;9.95;;
14348;SDS011;7258;50.376;8.742;2022-10-18T04:19:23;16.85;;;10.27;;
14348;SDS011;7258;50.376;8.742;2022-10-18T04:21:26;15.63;;;9.30;;
14348;SDS011;7258;50.376;8.742;2022-10-18T04:23:28;15.30;;;8.60;;
14348;SDS011;7258;50.376;8.742;2022-10-18T04:25:36;19.35;;;10.18;;
14348;SDS011;7258;50.376;8.742;2022-10-18T04:27:39;22.58;;;12.30;;
14348;SDS011;7258;50.376;8.742;2022-10-18T04:29:42;23.58;;;11.70;;
14348;SDS011;7258;50.376;8.742;2022-10-18T04:31:44;20.13;;;11.32;;
14348;SDS011;7258;50.376;8.742;2022-10-18T04:33:49;21.13;;;10.85;;
14348;SDS011;7258;50.376;8.742;2022-10-18T04:35:51;35.05;;;12.77;;
14348;SDS011;7258;50.376;8.742;2022-10-18T04:37:54;30.13;;;13.23;;
14348;SDS011;7258;50.376;8.742;2022-10-18T04:39:57;19.77;;;11.45;;
14348;SDS011;7258;50.376;8.742;2022-10-18T04:42:00;27.08;;;13.20;;
14348;SDS011;7258;50.376;8.742;2022-10-18T04:44:03;29.67;;;14.18;;
14348;SDS011;7258;50.376;8.742;2022-10-18T04:46:06;26.58;;;13.55;;
14348;SDS011;7258;50.376;8.742;2022-10-18T04:48:08;27.73;;;14.25;;
14348;SDS011;7258;50.376;8.742;2022-10-18T04:50:12;31.08;;;14.82;;
14348;SDS011;7258;50.376;8.742;2022-10-18T04:52:15;32.20;;;15.25;;
14348;SDS011;7258;50.376;8.742;2022-10-18T04:54:18;30.98;;;14.75;;
14348;SDS011;7258;50.376;8.742;2022-10-18T04:56:25;25.70;;;14.27;;
14348;SDS011;7258;50.376;8.742;2022-10-18T04:58:28;30.92;;;14.27;;
14348;SDS011;7258;50.376;8.742;2022-10-18T05:00:30;26.13;;;13.18;;
14348;SDS011;7258;50.376;8.742;2022-10-18T05:02:39;27.60;;;13.50;;
14348;SDS011;7258;50.376;8.742;2022-10-18T05:04:42;35.88;;;14.55;;
14348;SDS011;7258;50.376;8.742;2022-10-18T05:06:46;30.45;;;14.00;;
14348;SDS011;7258;50.376;8.742;2022-10-18T05:08:49;30.00;;;14.23;;
14348;SDS011;7258;50.376;8.742;2022-10-18T05:10:52;23.23;;;14.20;;
14348;SDS011;7258;50.376;8.742;2022-10-18T05:12:55;26.23;;;13.80;;
14348;SDS011;7258;50.376;8.742;2022-10-18T05:14:58;23.33;;;13.65;;
14348;SDS011;7258;50.376;8.742;2022-10-18T05:17:03;29.27;;;15.07;;
14348;SDS011;7258;50.376;8.742;2022-10-18T05:19:06;33.88;;;15.90;;
14348;SDS011;7258;50.376;8.742;2022-10-18T05:21:09;41.40;;;16.38;;
14348;SDS011;7258;50.376;8.742;2022-10-18T05:23:14;37.60;;;16.52;;
14348;SDS011;7258;50.376;8.742;2022-10-18T05:25:17;35.63;;;16.70;;
14348;SDS011;7258;50.376;8.742;2022-10-18T05:27:19;37.17;;;17.75;;
14348;SDS011;7258;50.376;8.742;2022-10-18T05:29:22;36.13;;;17.58;;
14348;SDS011;7258;50.376;8.742;2022-10-18T05:31:25;42.08;;;17.63;;
14348;SDS011;7258;50.376;8.742;2022-10-18T05:33:28;35.63;;;17.38;;
14348;SDS011;7258;50.376;8.742;2022-10-18T05:35:32;29.45;;;16.17;;
14348;SDS011;7258;50.376;8.742;2022-10-18T05:37:35;29.65;;;15.43;;
14348;SDS011;7258;50.376;8.742;2022-10-18T05:39:40;39.30;;;17.25;;
14348;SDS011;7258;50.376;8.742;2022-10-18T05:41:43;32.38;;;15.38;;
14348;SDS011;7258;50.376;8.742;2022-10-18T05:43:45;34.97;;;15.88;;
14348;SDS011;7258;50.376;8.742;2022-10-18T05:45:48;38.15;;;17.35;;
14348;SDS011;7258;50.376;8.742;2022-10-18T05:47:52;37.92;;;17.55;;
14348;SDS011;7258;50.376;8.742;2022-10-18T05:49:55;42.10;;;18.83;;
14348;SDS011;7258;50.376;8.742;2022-10-18T05:51:58;43.70;;;19.08;;
14348;SDS011;7258;50.376;8.742;2022-10-18T05:54:00;35.42;;;16.60;;
14348;SDS011;7258;50.376;8.742;2022-10-18T05:56:05;39.00;;;16.02;;
14348;SDS011;7258;50.376;8.742;2022-10-18T05:58:09;42.45;;;18.20;;
14348;SDS011;7258;50.376;8.742;2022-10-18T06:00:12;40.30;;;18.65;;
14348;SDS011;7258;50.376;8.742;2022-10-18T06:02:15;42.38;;;17.80;;
14348;SDS011;7258;50.376;8.742;2022-10-18T06:04:18;54.03;;;21.10;;
14348;SDS011;7258;50.376;8.742;2022-10-18T06:06:20;46.47;;;17.83;;
14348;SDS011;7258;50.376;8.742;2022-10-18T06:08:23;41.80;;;18.05;;
14348;SDS011;7258;50.376;8.742;2022-10-18T06:10:27;35.28;;;16.77;;
14348;SDS011;7258;50.376;8.742;2022-10-18T06:12:31;49.75;;;19.92;;
14348;SDS011;7258;50.376;8.742;2022-10-18T06:14:34;39.58;;;18.90;;
14348;SDS011;7258;50.376;8.742;2022-10-18T06:16:38;48.63;;;19.67;;
14348;SDS011;7258;50.376;8.742;2022-10-18T06:18:40;41.33;;;19.33;;
14348;SDS011;7258;50.376;8.742;2022-10-18T06:20:43;37.10;;;17.95;;
14348;SDS011;7258;50.376;8.742;2022-10-18T06:22:46;51.15;;;19.98;;
14348;SDS011;7258;50.376;8.742;2022-10-18T06:24:49;38.63;;;16.90;;
14348;SDS011;7258;50.376;8.742;2022-10-18T06:26:57;37.20;;;17.40;;
14348;SDS011;7258;50.376;8.742;2022-10-18T06:29:01;44.92;;;19.98;;
14348;SDS011;7258;50.376;8.742;2022-10-18T06:31:04;48.22;;;20.48;;
14348;SDS011;7258;50.376;8.742;2022-10-18T06:33:08;51.85;;;23.23;;
14348;SDS011;7258;50.376;8.742;2022-10-18T06:35:12;41.00;;;20.02;;
14348;SDS011;7258;50.376;8.742;2022-10-18T06:37:14;46.42;;;21.48;;
14348;SDS011;7258;50.376;8.742;2022-10-18T06:39:17;40.78;;;19.02;;
14348;SDS011;7258;50.376;8.742;2022-10-18T06:41:20;45.08;;;19.80;;
14348;SDS011;7258;50.376;8.742;2022-10-18T06:43:23;50.97;;;18.63;;
14348;SDS011;7258;50.376;8.742;2022-10-18T06:45:27;40.63;;;17.88;;
14348;SDS011;7258;50.376;8.742;2022-10-18T06:47:30;42.65;;;17.88;;
14348;SDS011;7258;50.376;8.742;2022-10-18T06:49:33;38.78;;;18.70;;
14348;SDS011;7258;50.376;8.742;2022-10-18T06:51:36;42.88;;;20.23;;
14348;SDS011;7258;50.376;8.742;2022-10-18T06:53:39;44.08;;;19.58;;
14348;SDS011;7258;50.376;8.742;2022-10-18T06:55:48;54.22;;;22.58;;
14348;SDS011;7258;50.376;8.742;2022-10-18T06:57:51;52.60;;;22.13;;
14348;SDS011;7258;50.376;8.742;2022-10-18T06:59:54;48.90;;;21.90;;
14348;SDS011;7258;50.376;8.742;2022-10-18T07:01:58;54.08;;;21.75;;
14348;SDS011;7258;50.376;8.742;2022-10-18T07:04:02;58.40;;;22.65;;
14348;SDS011;7258;50.376;8.742;2022-10-18T07:06:06;61.83;;;23.88;;
14348;SDS011;7258;50.376;8.742;2022-10-18T07:08:11;44.35;;;19.70;;
14348;SDS011;7258;50.376;8.742;2022-10-18T07:10:13;46.97;;;20.63;;
14348;SDS011;7258;50.376;8.742;2022-10-18T07:12:16;37.55;;;19.00;;
14348;SDS011;7258;50.376;8.742;2022-10-18T07:14:20;48.05;;;19.02;;
14348;SDS011;7258;50.376;8.742;2022-10-18T07:16:29;36.70;;;18.02;;
14348;SDS011;7258;50.376;8.742;2022-10-18T07:18:34;45.58;;;19.73;;
14348;SDS011;7258;50.376;8.742;2022-10-18T07:20:38;44.17;;;20.88;;
14348;SDS011;7258;50.376;8.742;2022-10-18T07:22:41;45.33;;;19.92;;
14348;SDS011;7258;50.376;8.742;2022-10-18T07:24:43;44.22;;;19.38;;
14348;SDS011;7258;50.376;8.742;2022-10-18T07:26:46;50.08;;;19.50;;
14348;SDS011;7258;50.376;8.742;2022-10-18T07:28:49;45.35;;;18.58;;
14348;SDS011;7258;50.376;8.742;2022-10-18T07:30:55;48.60;;;19.88;;
14348;SDS011;7258;50.376;8.742;2022-10-18T07:33:05;46.22;;;21.38;;
14348;SDS011;7258;50.376;8.742;2022-10-18T07:35:09;30.52;;;16.73;;
14348;SDS011;7258;50.376;8.742;2022-10-18T07:37:12;33.15;;;16.83;;
14348;SDS011;7258;50.376;8.742;2022-10-18T07:39:15;39.28;;;17.23;;
14348;SDS011;7258;50.376;8.742;2022-10-18T07:41:20;40.97;;;17.92;;
14348;SDS011;7258;50.376;8.742;2022-10-18T07:43:24;38.88;;;18.08;;
14348;SDS011;7258;50.376;8.742;2022-10-18T07:45:28;47.63;;;18.25;;
14348;SDS011;7258;50.376;8.742;2022-10-18T07:47:31;41.65;;;17.27;;
14348;SDS011;7258;50.376;8.742;2022-10-18T07:49:35;43.60;;;18.98;;
14348;SDS011;7258;50.376;8.742;2022-10-18T07:51:39;50.10;;;21.00;;
14348;SDS011;7258;50.376;8.742;2022-10-18T07:53:42;44.58;;;19.42;;
14348;SDS011;7258;50.376;8.742;2022-10-18T07:55:46;51.22;;;21.17;;
14348;SDS011;7258;50.376;8.742;2022-10-18T07:57:49;60.85;;;27.33;;
14348;SDS011;7258;50.376;8.742;2022-10-18T07:59:52;86.85;;;41.88;;
14348;SDS011;7258;50.376;8.742;2022-10-18T08:01:57;42.08;;;22.13;;
14348;SDS011;7258;50.376;8.742;2022-10-18T08:04:00;37.22;;;19.17;;
14348;SDS011;7258;50.376;8.742;2022-10-18T08:06:08;29.33;;;14.98;;
14348;SDS011;7258;50.376;8.742;2022-10-18T08:08:16;27.88;;;14.82;;
14348;SDS011;7258;50.376;8.742;2022-10-18T08:10:18;20.25;;;12.18;;
14348;SDS011;7258;50.376;8.742;2022-10-18T08:12:21;21.23;;;11.38;;
14348;SDS011;7258;50.376;8.742;2022-10-18T08:14:24;26.48;;;12.30;;
14348;SDS011;7258;50.376;8.742;2022-10-18T08:16:27;26.45;;;12.52;;
14348;SDS011;7258;50.376;8.742;2022-10-18T08:18:32;23.30;;;12.07;;
14348;SDS011;7258;50.376;8.742;2022-10-18T08:20:36;24.35;;;13.85;;
14348;SDS011;7258;50.376;8.742;2022-10-18T08:22:38;28.98;;;13.65;;
14348;SDS011;7258;50.376;8.742;2022-10-18T08:24:42;26.88;;;13.43;;
14348;SDS011;7258;50.376;8.742;2022-10-18T08:26:45;29.77;;;13.60;;
14348;SDS011;7258;50.376;8.742;2022-10-18T08:28:50;16.35;;;9.50;;
14348;SDS011;7258;50.376;8.742;2022-10-18T08:31:13;19.05;;;8.43;;
14348;SDS011;7258;50.376;8.742;2022-10-18T08:33:18;12.38;;;7.28;;
14348;SDS011;7258;50.376;8.742;2022-10-18T08:35:22;10.57;;;6.97;;
14348;SDS011;7258;50.376;8.742;2022-10-18T08:37:25;11.00;;;7.30;;
14348;SDS011;7258;50.376;8.742;2022-10-18T08:39:27;12.63;;;7.60;;
14348;SDS011;7258;50.376;8.742;2022-10-18T08:44:12;10.95;;;7.05;;
14348;SDS011;7258;50.376;8.742;2022-10-18T08:46:21;13.10;;;7.40;;
14348;SDS011;7258;50.376;8.742;2022-10-18T08:48:26;7.22;;;6.18;;
14348;SDS011;7258;50.376;8.742;2022-10-18T08:50:35;7.70;;;6.10;;
14348;SDS011;7258;50.376;8.742;2022-10-18T08:52:42;10.35;;;6.43;;
14348;SDS011;7258;50.376;8.742;2022-10-18T08:54:52;10.68;;;6.50;;
14348;SDS011;7258;50.376;8.742;2022-10-18T08:57:00;9.93;;;6.78;;
14348;SDS011;7258;50.376;8.742;2022-10-18T08:59:08;8.27;;;6.07;;
14348;SDS011;7258;50.376;8.742;2022-10-18T09:01:17;8.85;;;6.25;;
14348;SDS011;7258;50.376;8.742;2022-10-18T09:03:35;8.48;;;6.07;;
14348;SDS011;7258;50.376;8.742;2022-10-18T09:05:48;6.63;;;4.72;;
14348;SDS011;7258;50.376;8.742;2022-10-18T09:08:01;5.07;;;3.60;;
14348;SDS011;7258;50.376;8.742;2022-10-18T09:10:18;6.97;;;4.00;;
14348;SDS011;7258;50.376;8.742;2022-10-18T09:12:35;4.45;;;3.60;;
14348;SDS011;7258;50.376;8.742;2022-10-18T09:17:19;3.50;;;3.20;;
14348;SDS011;7258;50.376;8.742;2022-10-18T09:19:30;3.28;;;2.92;;
14348;SDS011;7258;50.376;8.742;2022-10-18T09:21:48;5.32;;;2.95;;
14348;SDS011;7258;50.376;8.742;2022-10-18T09:23:55;2.88;;;2.50;;
14348;SDS011;7258;50.376;8.742;2022-10-18T09:26:09;3.75;;;2.20;;
14348;SDS011;7258;50.376;8.742;2022-10-18T09:28:18;2.40;;;2.13;;
14348;SDS011;7258;50.376;8.742;2022-10-18T09:30:37;2.53;;;2.00;;
14348;SDS011;7258;50.376;8.742;2022-10-18T09:32:46;2.20;;;1.90;;
14348;SDS011;7258;50.376;8.742;2022-10-18T09:34:54;1.90;;;1.77;;
14348;SDS011;7258;50.376;8.742;2022-10-18T09:36:59;1.95;;;1.85;;
14348;SDS011;7258;50.376;8.742;2022-10-18T09:39:04;1.98;;;1.60;;
14348;SDS011;7258;50.376;8.742;2022-10-18T09:41:14;1.58;;;1.48;;
14348;SDS011;7258;50.376;8.742;2022-10-18T09:43:21;2.22;;;1.70;;
14348;SDS011;7258;50.376;8.742;2022-10-18T09:45:27;1.60;;;1.50;;
14348;SDS011;7258;50.376;8.742;2022-10-18T09:47:35;1.70;;;1.50;;
14348;SDS011;7258;50.376;8.742;2022-10-18T09:49:43;2.63;;;1.50;;
14348;SDS011;7258;50.376;8.742;2022-10-18T09:51:48;1.60;;;1.50;;
14348;SDS011;7258;50.376;8.742;2022-10-18T09:53:57;1.83;;;1.30;;
14348;SDS011;7258;50.376;8.742;2022-10-18T09:56:05;3.00;;;1.38;;
14348;SDS011;7258;50.376;8.742;2022-10-18T09:58:11;3.03;;;1.45;;
14348;SDS011;7258;50.376;8.742;2022-10-18T10:00:15;1.73;;;1.20;;
14348;SDS011;7258;50.376;8.742;2022-10-18T10:02:22;1.13;;;1.10;;
14348;SDS011;7258;50.376;8.742;2022-10-18T10:04:27;2.50;;;1.10;;
14348;SDS011;7258;50.376;8.742;2022-10-18T10:06:30;1.13;;;1.00;;
14348;SDS011;7258;50.376;8.742;2022-10-18T10:08:34;1.58;;;1.00;;
14348;SDS011;7258;50.376;8.742;2022-10-18T10:10:37;1.15;;;0.95;;
14348;SDS011;7258;50.376;8.742;2022-10-18T10:12:42;1.67;;;1.17;;
14348;SDS011;7258;50.376;8.742;2022-10-18T10:14:46;1.27;;;1.15;;
14348;SDS011;7258;50.376;8.742;2022-10-18T10:16:49;1.33;;;1.10;;
14348;SDS011;7258;50.376;8.742;2022-10-18T10:18:53;1.08;;;1.08;;
14348;SDS011;7258;50.376;8.742;2022-10-18T10:20:57;2.50;;;1.02;;
14348;SDS011;7258;50.376;8.742;2022-10-18T10:23:05;2.30;;;0.98;;
14348;SDS011;7258;50.376;8.742;2022-10-18T10:25:18;1.73;;;1.30;;
14348;SDS011;7258;50.376;8.742;2022-10-18T10:27:38;1.25;;;1.15;;
14348;SDS011;7258;50.376;8.742;2022-10-18T10:29:52;1.23;;;1.17;;
14348;SDS011;7258;50.376;8.742;2022-10-18T10:32:00;1.05;;;0.95;;
14348;SDS011;7258;50.376;8.742;2022-10-18T10:34:05;0.90;;;0.90;;
14348;SDS011;7258;50.376;8.742;2022-10-18T10:36:21;1.48;;;0.77;;
14348;SDS011;7258;50.376;8.742;2022-10-18T10:38:24;1.55;;;0.77;;
14348;SDS011;7258;50.376;8.742;2022-10-18T10:40:28;0.88;;;0.88;;
14348;SDS011;7258;50.376;8.742;2022-10-18T10:42:33;2.40;;;2.30;;
14348;SDS011;7258;50.376;8.742;2022-10-18T10:44:39;8.02;;;2.75;;
14348;SDS011;7258;50.376;8.742;2022-10-18T10:46:55;2.90;;;1.30;;
14348;SDS011;7258;50.376;8.742;2022-10-18T10:48:59;0.88;;;0.88;;
14348;SDS011;7258;50.376;8.742;2022-10-18T10:51:28;0.85;;;0.85;;
14348;SDS011;7258;50.376;8.742;2022-10-18T10:53:41;3.30;;;1.00;;
14348;SDS011;7258;50.376;8.742;2022-10-18T10:55:46;1.25;;;1.00;;
14348;SDS011;7258;50.376;8.742;2022-10-18T10:57:55;1.00;;;1.00;;
14348;SDS011;7258;50.376;8.742;2022-10-18T10:59:58;1.17;;;1.08;;
14348;SDS011;7258;50.376;8.742;2022-10-18T11:04:23;1.83;;;1.08;;
14348;SDS011;7258;50.376;8.742;2022-10-18T11:06:31;1.10;;;1.00;;
14348;SDS011;7258;50.376;8.742;2022-10-18T11:08:41;1.30;;;1.20;;
14348;SDS011;7258;50.376;8.742;2022-10-18T11:10:52;0.80;;;0.80;;
14348;SDS011;7258;50.376;8.742;2022-10-18T11:13:05;0.68;;;0.68;;
14348;SDS011;7258;50.376;8.742;2022-10-18T11:15:25;1.63;;;0.88;;
14348;SDS011;7258;50.376;8.742;2022-10-18T11:17:38;0.85;;;0.75;;
14348;SDS011;7258;50.376;8.742;2022-10-18T11:20:08;0.80;;;0.80;;
14348;SDS011;7258;50.376;8.742;2022-10-18T11:22:24;1.38;;;0.90;;
14348;SDS011;7258;50.376;8.742;2022-10-18T11:24:29;1.35;;;0.90;;
14348;SDS011;7258;50.376;8.742;2022-10-18T11:26:35;0.95;;;0.73;;
14348;SDS011;7258;50.376;8.742;2022-10-18T11:31:17;1.05;;;0.90;;
14348;SDS011;7258;50.376;8.742;2022-10-18T11:33:27;0.50;;;0.50;;
14348;SDS011;7258;50.376;8.742;2022-10-18T11:36:00;0.60;;;0.60;;
14348;SDS011;7258;50.376;8.742;2022-10-18T11:38:13;0.88;;;0.77;;
14348;SDS011;7258;50.376;8.742;2022-10-18T11:42:50;0.75;;;0.75;;
14348;SDS011;7258;50.376;8.742;2022-10-18T11:45:02;1.08;;;0.70;;
14348;SDS011;7258;50.376;8.742;2022-10-18T11:47:22;1.00;;;0.70;;
14348;SDS011;7258;50.376;8.742;2022-10-18T11:49:35;2.00;;;0.80;;
14348;SDS011;7258;50.376;8.742;2022-10-18T11:51:49;1.35;;;0.50;;
14348;SDS011;7258;50.376;8.742;2022-10-18T11:54:16;1.67;;;0.63;;
14348;SDS011;7258;50.376;8.742;2022-10-18T11:56:35;1.23;;;0.95;;
14348;SDS011;7258;50.376;8.742;2022-10-18T11:58:50;1.23;;;1.10;;
14348;SDS011;7258;50.376;8.742;2022-10-18T12:01:05;3.20;;;0.95;;
14348;SDS011;7258;50.376;8.742;2022-10-18T12:03:23;1.20;;;1.10;;
14348;SDS011;7258;50.376;8.742;2022-10-18T12:05:38;1.17;;;1.10;;
14348;SDS011;7258;50.376;8.742;2022-10-18T12:07:46;1.65;;;1.30;;
14348;SDS011;7258;50.376;8.742;2022-10-18T12:09:55;3.00;;;1.55;;
14348;SDS011;7258;50.376;8.742;2022-10-18T12:12:01;1.63;;;1.52;;
14348;SDS011;7258;50.376;8.742;2022-10-18T12:14:12;3.80;;;1.77;;
14348;SDS011;7258;50.376;8.742;2022-10-18T12:16:22;3.72;;;1.48;;
14348;SDS011;7258;50.376;8.742;2022-10-18T12:18:50;1.60;;;1.50;;
14348;SDS011;7258;50.376;8.742;2022-10-18T12:20:55;2.45;;;1.85;;
14348;SDS011;7258;50.376;8.742;2022-10-18T12:23:00;1.75;;;1.65;;
14348;SDS011;7258;50.376;8.742;2022-10-18T12:25:10;1.67;;;1.58;;
14348;SDS011;7258;50.376;8.742;2022-10-18T12:27:15;3.08;;;1.75;;
14348;SDS011;7258;50.376;8.742;2022-10-18T12:29:19;1.70;;;1.60;;
14348;SDS011;7258;50.376;8.742;2022-10-18T12:31:28;5.18;;;1.80;;
14348;SDS011;7258;50.376;8.742;2022-10-18T12:33:37;3.83;;;1.80;;
14348;SDS011;7258;50.376;8.742;2022-10-18T12:35:46;1.90;;;1.80;;
14348;SDS011;7258;50.376;8.742;2022-10-18T12:38:03;1.60;;;1.50;;
14348;SDS011;7258;50.376;8.742;2022-10-18T12:40:16;3.22;;;1.70;;
14348;SDS011;7258;50.376;8.742;2022-10-18T12:42:25;1.80;;;1.70;;
14348;SDS011;7258;50.376;8.742;2022-10-18T12:44:31;2.50;;;1.70;;
14348;SDS011;7258;50.376;8.742;2022-10-18T12:46:41;1.83;;;1.73;;
14348;SDS011;7258;50.376;8.742;2022-10-18T12:48:48;2.92;;;1.70;;
14348;SDS011;7258;50.376;8.742;2022-10-18T12:51:04;2.63;;;1.80;;